createdAt,value
2023-04-25T00:02:24.386Z,101046.97
2023-04-25T00:04:53.793Z,101048.00
2023-04-25T00:07:22.045Z,101057.72
2023-04-25T00:09:49.879Z,101051.50
2023-04-25T00:12:17.997Z,101056.28
2023-04-25T00:14:46.550Z,101062.47
2023-04-25T00:17:14.282Z,101049.53
2023-04-25T00:19:41.972Z,101068.06
2023-04-25T00:22:11.128Z,101068.28
2023-04-25T00:24:38.909Z,101068.28
2023-04-25T00:27:06.639Z,101059.41
2023-04-25T00:29:34.411Z,101062.91
2023-04-25T00:32:02.649Z,101058.56
2023-04-25T00:34:30.535Z,101065.81
2023-04-25T00:36:58.790Z,101064.16
2023-04-25T00:39:27.926Z,101060.66
2023-04-25T00:41:56.711Z,101062.50
2023-04-25T00:44:25.375Z,101063.56
2023-04-25T00:46:54.356Z,101058.19
2023-04-25T00:49:22.132Z,101057.38
2023-04-25T00:51:50.335Z,101049.53
2023-04-25T00:54:18.591Z,101054.69
2023-04-25T00:56:47.828Z,101058.19
2023-04-25T00:59:17.774Z,101057.59
2023-04-25T01:01:46.166Z,101058.44
2023-04-25T01:04:15.247Z,101064.84
2023-04-25T01:06:43.504Z,101063.19
2023-04-25T01:09:11.722Z,101064.22
2023-04-25T01:11:41.069Z,101058.03
2023-04-25T01:14:10.269Z,101056.59
2023-04-25T01:16:38.388Z,101063.63
2023-04-25T01:19:11.938Z,101060.94
2023-04-25T01:21:41.425Z,101060.13
2023-04-25T01:24:09.532Z,101054.34
2023-04-25T01:26:37.994Z,101064.28
2023-04-25T01:29:06.337Z,101063.22
2023-04-25T01:31:35.068Z,101068.81
2023-04-25T01:34:02.955Z,101069.84
2023-04-25T01:36:31.488Z,101072.53
2023-04-25T01:39:00.701Z,101070.88
2023-04-25T01:41:29.042Z,101073.78
2023-04-25T01:43:57.627Z,101069.47
2023-04-25T01:46:25.582Z,101071.31
2023-04-25T01:48:53.401Z,101066.97
2023-04-25T01:51:21.466Z,101075.25
2023-04-25T01:53:49.572Z,101079.59
2023-04-25T01:56:20.010Z,101075.47
2023-04-25T01:58:47.747Z,101077.31
2023-04-25T02:01:15.633Z,101082.66
2023-04-25T02:03:43.778Z,101080.00
2023-04-25T02:06:11.567Z,101083.72
2023-04-25T02:08:39.337Z,101087.22
2023-04-25T02:11:07.044Z,101090.13
2023-04-25T02:13:36.157Z,101091.16
2023-04-25T02:16:04.097Z,101097.56
2023-04-25T02:18:32.235Z,101094.06
2023-04-25T02:21:00.110Z,101094.25
2023-04-25T02:23:27.805Z,101089.72
2023-04-25T02:25:56.319Z,101098.81
2023-04-25T02:28:24.018Z,101093.66
2023-04-25T02:30:53.134Z,101100.06
2023-04-25T02:33:21.994Z,101101.91
2023-04-25T02:35:50.046Z,101090.34
2023-04-25T02:38:17.772Z,101101.09
2023-04-25T02:40:45.619Z,101097.59
2023-04-25T02:43:13.411Z,101096.75
2023-04-25T02:45:41.089Z,101105.03
2023-04-25T02:48:10.224Z,101109.38
2023-04-25T02:50:37.996Z,101098.00
2023-04-25T02:53:05.748Z,101103.59
2023-04-25T02:55:33.443Z,101106.28
2023-04-25T02:58:01.308Z,101106.50
2023-04-25T03:00:29.144Z,101095.13
2023-04-25T03:02:57.708Z,101097.00
2023-04-25T03:05:26.922Z,101093.50
2023-04-25T03:07:54.630Z,101095.34
2023-04-25T03:10:22.312Z,101096.38
2023-04-25T03:12:50.016Z,101095.34
2023-04-25T03:15:18.180Z,101106.09
2023-04-25T03:17:46.078Z,101104.66
2023-04-25T03:20:14.074Z,101107.34
2023-04-25T03:22:43.220Z,101103.81
2023-04-25T03:25:10.929Z,101110.22
2023-04-25T03:27:38.615Z,101113.97
2023-04-25T03:30:08.800Z,101109.63
2023-04-25T03:32:36.607Z,101118.72
2023-04-25T03:35:04.687Z,101109.00
2023-04-25T03:37:32.439Z,101116.25
2023-04-25T03:40:01.564Z,101108.41
2023-04-25T03:42:29.306Z,101113.97
2023-04-25T03:44:57.111Z,101115.84
2023-04-25T03:47:24.817Z,101116.66
2023-04-25T03:49:52.810Z,101111.28
2023-04-25T03:52:20.520Z,101113.16
2023-04-25T03:54:48.235Z,101113.34
2023-04-25T03:57:17.346Z,101112.53
2023-04-25T03:59:45.119Z,101117.06
2023-04-25T04:02:12.981Z,101117.28
2023-04-25T04:04:41.125Z,101117.28
2023-04-25T04:07:09.031Z,101106.78
2023-04-25T04:09:36.768Z,101123.47
2023-04-25T04:12:04.853Z,101124.31
2023-04-25T04:14:34.053Z,101125.75
2023-04-25T04:17:01.884Z,101133.41
2023-04-25T04:19:29.600Z,101133.41
2023-04-25T04:21:57.320Z,101128.84
2023-04-25T04:24:25.112Z,101135.25
2023-04-25T04:26:53.086Z,101137.94
2023-04-25T04:29:22.553Z,101139.81
2023-04-25T04:31:53.714Z,101138.97
2023-04-25T04:34:21.669Z,101143.50
2023-04-25T04:36:49.921Z,101155.06
2023-04-25T04:39:17.694Z,101152.59
2023-04-25T04:41:45.407Z,101158.78
2023-04-25T04:44:13.459Z,101156.09
2023-04-25T04:46:43.196Z,101157.97
2023-04-25T04:49:14.678Z,101153.63
2023-04-25T04:51:45.386Z,101157.34
2023-04-25T04:54:13.073Z,101156.53
2023-04-25T04:56:41.284Z,101162.94
2023-04-25T04:59:09.000Z,101163.97
2023-04-25T05:01:37.230Z,101163.13
2023-04-25T05:04:05.280Z,101163.75
2023-04-25T05:06:34.432Z,101185.03
2023-04-25T05:09:02.128Z,101187.09
2023-04-25T05:11:29.924Z,101194.31
2023-04-25T05:13:57.675Z,101190.19
2023-04-25T05:16:25.506Z,101193.91
2023-04-25T05:18:53.265Z,101199.69
2023-04-25T05:21:20.942Z,101202.38
2023-04-25T05:23:50.611Z,101198.88
2023-04-25T05:26:18.556Z,101202.78
2023-04-25T05:28:46.297Z,101213.31
2023-04-25T05:31:14.109Z,101210.41
2023-04-25T05:33:41.834Z,101202.38
2023-04-25T05:36:10.283Z,101200.09
2023-04-25T05:38:37.953Z,101211.66
2023-04-25T05:41:07.100Z,101210.84
2023-04-25T05:43:34.852Z,101211.88
2023-04-25T05:46:02.744Z,101219.91
2023-04-25T05:48:31.002Z,101208.78
2023-04-25T05:50:58.698Z,101225.28
2023-04-25T05:53:26.391Z,101224.88
2023-04-25T05:55:54.089Z,101230.03
2023-04-25T05:58:23.183Z,101231.88
2023-04-25T06:00:51.243Z,101235.81
2023-04-25T06:03:20.906Z,101237.47
2023-04-25T06:05:49.162Z,101238.28
2023-04-25T06:08:16.950Z,101241.19
2023-04-25T06:10:44.823Z,101245.94
2023-04-25T06:13:12.600Z,101248.81
2023-04-25T06:15:41.658Z,101252.94
2023-04-25T06:18:09.534Z,101252.72
2023-04-25T06:20:37.307Z,101251.28
2023-04-25T06:23:05.069Z,101249.19
2023-04-25T06:25:32.783Z,101249.34
2023-04-25T06:28:00.796Z,101251.75
2023-04-25T06:30:28.794Z,101250.66
2023-04-25T06:32:57.948Z,101253.91
2023-04-25T06:35:25.733Z,101254.72
2023-04-25T06:37:53.455Z,101259.66
2023-04-25T06:40:21.314Z,101259.47
2023-04-25T06:42:49.115Z,101262.81
2023-04-25T06:45:16.952Z,101270.25
2023-04-25T06:47:44.962Z,101268.16
2023-04-25T06:50:14.129Z,101279.78
2023-04-25T06:52:41.884Z,101277.38
2023-04-25T06:55:10.740Z,101280.75
2023-04-25T06:57:38.548Z,101280.59
2023-04-25T07:00:10.258Z,101282.69
2023-04-25T07:02:38.549Z,101274.22
2023-04-25T07:05:06.880Z,101281.44
2023-04-25T07:07:38.599Z,101277.72
2023-04-25T07:10:07.488Z,101290.53
2023-04-25T07:12:35.294Z,101290.13
2023-04-25T07:15:06.820Z,101298.59
2023-04-25T07:17:35.719Z,101301.47
2023-04-25T07:20:04.774Z,101301.25
2023-04-25T07:22:32.481Z,101303.13
2023-04-25T07:25:01.588Z,101300.66
2023-04-25T07:27:29.460Z,101303.56
2023-04-25T07:29:57.311Z,101301.50
2023-04-25T07:32:25.489Z,101306.47
2023-04-25T07:34:53.259Z,101306.22
2023-04-25T07:37:21.170Z,101308.50
2023-04-25T07:39:48.990Z,101310.38
2023-04-25T07:42:18.105Z,101309.94
2023-04-25T07:44:45.945Z,101317.78
2023-04-25T07:47:14.132Z,101314.50
2023-04-25T07:49:42.094Z,101320.06
2023-04-25T07:52:09.907Z,101320.47
2023-04-25T07:54:37.709Z,101329.97
2023-04-25T07:57:07.306Z,101332.66
2023-04-25T07:59:36.745Z,101333.69
2023-04-25T08:02:04.507Z,101334.13
2023-04-25T08:04:32.313Z,101335.78
2023-04-25T08:07:00.829Z,101342.19
2023-04-25T08:09:28.654Z,101344.47
2023-04-25T08:11:56.406Z,101351.66
2023-04-25T08:14:24.107Z,101347.50
2023-04-25T08:16:53.154Z,101357.59
2023-04-25T08:19:20.894Z,101352.63
2023-04-25T08:21:48.672Z,101363.13
2023-04-25T08:24:16.377Z,101369.25
2023-04-25T08:26:44.718Z,101366.59
2023-04-25T08:29:12.487Z,101375.72
2023-04-25T08:31:40.365Z,101372.66
2023-04-25T08:34:09.466Z,101379.09
2023-04-25T08:36:39.697Z,101384.69
2023-04-25T08:39:08.346Z,101392.97
2023-04-25T08:41:36.451Z,101387.00
2023-04-25T08:44:05.516Z,101391.97
2023-04-25T08:46:34.216Z,101392.63
2023-04-25T08:49:03.546Z,101403.38
2023-04-25T08:51:34.175Z,101404.16
2023-04-25T08:54:28.004Z,101405.19
2023-04-25T08:57:00.558Z,101407.88
2023-04-25T08:59:29.005Z,101413.22
2023-04-25T09:01:57.146Z,101417.78
2023-04-25T09:04:24.881Z,101425.38
2023-04-25T09:06:53.973Z,101430.75
2023-04-25T09:09:22.415Z,101434.06
2023-04-25T09:11:50.484Z,101428.47
2023-04-25T09:14:21.434Z,101445.22
2023-04-25T09:17:03.670Z,101440.88
2023-04-25T09:19:40.398Z,101457.00
2023-04-25T09:22:10.694Z,101453.06
2023-04-25T09:24:39.704Z,101437.56
2023-04-25T09:27:08.393Z,101455.13
2023-04-25T09:29:38.666Z,101457.19
2023-04-25T09:32:14.737Z,101456.38
2023-04-25T09:34:43.697Z,101466.47
2023-04-25T09:37:13.659Z,101468.13
2023-04-25T09:39:41.641Z,101467.94
2023-04-25T09:42:11.724Z,101466.09
2023-04-25T09:44:44.546Z,101467.31
2023-04-25T09:47:13.608Z,101478.06
2023-04-25T09:49:44.018Z,101478.06
2023-04-25T09:52:16.371Z,101483.25
2023-04-25T09:54:44.168Z,101475.19
2023-04-25T09:57:14.389Z,101478.09
2023-04-25T09:59:46.556Z,101476.84
2023-04-25T10:02:15.868Z,101484.72
2023-04-25T10:04:44.809Z,101479.13
2023-04-25T10:07:14.400Z,101483.28
2023-04-25T10:09:42.884Z,101481.00
2023-04-25T10:12:10.675Z,101474.59
2023-04-25T10:14:38.471Z,101478.13
2023-04-25T10:17:06.193Z,101480.59
2023-04-25T10:19:34.449Z,101473.56
2023-04-25T10:22:09.900Z,101468.84
2023-04-25T10:24:40.488Z,101473.38
2023-04-25T10:27:08.589Z,101474.19
2023-04-25T10:29:37.347Z,101479.81
2023-04-25T10:32:05.618Z,101481.47
2023-04-25T10:34:43.984Z,101478.59
2023-04-25T10:37:12.477Z,101480.66
2023-04-25T10:39:43.263Z,101483.53
2023-04-25T10:42:11.145Z,101477.53
2023-04-25T10:44:40.407Z,101485.59
2023-04-25T10:47:10.529Z,101485.19
2023-04-25T10:49:40.246Z,101472.78
2023-04-25T10:52:16.395Z,101489.34
2023-04-25T10:54:49.255Z,101484.56
2023-04-25T10:57:29.753Z,101479.00
2023-04-25T11:00:01.375Z,101484.38
2023-04-25T11:02:30.428Z,101485.41
2023-04-25T11:04:58.400Z,101483.34
2023-04-25T11:07:35.932Z,101486.03
2023-04-25T11:10:06.012Z,101479.00
2023-04-25T11:12:34.013Z,101491.19
2023-04-25T11:15:03.266Z,101482.72
2023-04-25T11:17:31.699Z,101486.84
2023-04-25T11:19:59.866Z,101499.47
2023-04-25T11:22:30.894Z,101490.38
2023-04-25T11:24:58.622Z,101491.41
2023-04-25T11:27:27.731Z,101494.09
2023-04-25T11:29:55.878Z,101492.63
2023-04-25T11:32:24.283Z,101502.56
2023-04-25T11:34:54.761Z,101498.44
2023-04-25T11:37:22.523Z,101503.63
2023-04-25T11:39:50.362Z,101512.50
2023-04-25T11:42:18.208Z,101513.31
2023-04-25T11:44:47.350Z,101535.81
2023-04-25T11:47:15.057Z,101541.97
2023-04-25T11:49:42.828Z,101541.81
2023-04-25T11:52:10.693Z,101543.66
2023-04-25T11:54:38.933Z,101537.88
2023-04-25T11:57:06.780Z,101535.22
2023-04-25T11:59:34.647Z,101539.34
2023-04-25T12:02:03.797Z,101533.59
2023-04-25T12:04:33.617Z,101541.63
2023-04-25T12:07:02.711Z,101534.81
2023-04-25T12:09:32.723Z,101534.00
2023-04-25T12:12:04.106Z,101537.09
2023-04-25T12:14:33.894Z,101544.94
2023-04-25T12:17:04.893Z,101557.16
2023-04-25T12:19:36.870Z,101546.16
2023-04-25T12:22:05.494Z,101549.69
2023-04-25T12:24:39.041Z,101557.34
2023-04-25T12:27:09.189Z,101548.84
2023-04-25T12:32:09.266Z,101552.81
2023-04-25T12:34:37.138Z,101553.84
2023-04-25T12:37:04.912Z,101547.44
2023-04-25T12:39:32.684Z,101547.81
2023-04-25T12:42:00.759Z,101532.13
2023-04-25T12:44:28.976Z,101550.13
2023-04-25T12:46:56.956Z,101549.28
2023-04-25T12:49:26.396Z,101550.94
2023-04-25T12:51:54.140Z,101563.34
2023-04-25T12:54:21.877Z,101558.38
2023-04-25T12:56:49.635Z,101574.28
2023-04-25T12:59:17.344Z,101564.56
2023-04-25T13:01:45.383Z,101571.41
2023-04-25T13:04:13.303Z,101565.41
2023-04-25T13:06:42.625Z,101560.84
2023-04-25T13:09:10.591Z,101568.72
2023-04-25T13:11:38.366Z,101563.75
2023-04-25T13:14:07.626Z,101563.13
2023-04-25T13:16:35.676Z,101577.81
2023-04-25T13:19:03.834Z,101573.28
2023-04-25T13:21:33.563Z,101581.94
2023-04-25T13:24:02.749Z,101578.00
2023-04-25T13:26:30.559Z,101575.13
2023-04-25T13:28:58.256Z,101573.06
2023-04-25T13:31:26.296Z,101584.84
2023-04-25T13:33:54.257Z,101580.06
2023-04-25T13:36:22.173Z,101571.81
2023-04-25T13:38:50.576Z,101570.97
2023-04-25T13:41:19.883Z,101572.84
2023-04-25T13:43:49.858Z,101575.53
2023-04-25T13:48:49.688Z,101568.28
2023-04-25T13:51:18.576Z,101569.94
2023-04-25T13:53:46.809Z,101589.81
2023-04-25T13:56:14.575Z,101571.81
2023-04-25T13:58:43.666Z,101584.63
2023-04-25T14:01:12.539Z,101575.97
2023-04-25T14:03:41.035Z,101578.41
2023-04-25T14:06:09.605Z,101573.88
2023-04-25T14:08:37.401Z,101569.75
2023-04-25T14:11:05.219Z,101567.47
2023-04-25T14:13:32.962Z,101569.34
2023-04-25T14:16:02.291Z,101580.72
2023-04-25T14:18:30.034Z,101573.06
2023-04-25T14:20:57.708Z,101571.41
2023-04-25T14:23:25.512Z,101574.91
2023-04-25T14:25:53.286Z,101571.19
2023-04-25T14:28:21.788Z,101570.34
2023-04-25T14:30:49.558Z,101582.97
2023-04-25T14:33:18.668Z,101584.81
2023-04-25T14:35:46.706Z,101576.34
2023-04-25T14:38:15.181Z,101591.66
2023-04-25T14:40:43.608Z,101597.47
2023-04-25T14:43:11.401Z,101587.13
2023-04-25T14:45:39.122Z,101596.00
2023-04-25T14:48:07.688Z,101596.22
2023-04-25T14:50:36.957Z,101595.38
2023-04-25T14:53:04.716Z,101593.72
2023-04-25T14:55:32.577Z,101582.16
2023-04-25T14:58:00.291Z,101580.91
2023-04-25T15:00:28.039Z,101579.03
2023-04-25T15:02:56.069Z,101576.34
2023-04-25T15:05:23.877Z,101576.78
2023-04-25T15:07:52.968Z,101583.59
2023-04-25T15:10:21.310Z,101586.91
2023-04-25T15:12:49.035Z,101590.81
2023-04-25T15:15:25.917Z,101586.25
2023-04-25T15:17:58.663Z,101587.31
2023-04-25T15:20:27.900Z,101585.06
2023-04-25T15:22:57.138Z,101587.09
2023-04-25T15:25:25.024Z,101598.69
2023-04-25T15:27:54.549Z,101598.69
2023-04-25T15:30:22.723Z,101604.06
2023-04-25T15:32:50.594Z,101605.72
2023-04-25T15:35:18.301Z,101595.78
2023-04-25T15:37:46.285Z,101606.13
2023-04-25T15:40:17.504Z,101608.19
2023-04-25T15:42:48.477Z,101618.31
2023-04-25T15:45:17.857Z,101621.22
2023-04-25T15:47:46.531Z,101621.22
2023-04-25T15:50:15.963Z,101627.41
2023-04-25T15:52:43.951Z,101636.50
2023-04-25T15:55:12.913Z,101635.28
2023-04-25T15:57:42.455Z,101628.25
2023-04-25T16:00:13.060Z,101632.78
2023-04-25T16:02:41.918Z,101619.72
2023-04-25T16:05:11.485Z,101620.59
2023-04-25T16:07:39.892Z,101642.72
2023-04-25T16:10:08.717Z,101641.94
2023-04-25T16:12:37.145Z,101638.25
2023-04-25T16:15:07.058Z,101639.09
2023-04-25T16:17:35.358Z,101636.63
2023-04-25T16:20:09.542Z,101633.75
2023-04-25T16:22:37.431Z,101631.06
2023-04-25T16:25:05.844Z,101638.31
2023-04-25T16:27:34.586Z,101639.34
2023-04-25T16:30:02.339Z,101643.69
2023-04-25T16:32:31.907Z,101646.16
2023-04-25T16:34:59.604Z,101643.66
2023-04-25T16:37:27.697Z,101640.34
2023-04-25T16:39:55.461Z,101640.75
2023-04-25T16:42:23.240Z,101641.59
2023-04-25T16:44:51.029Z,101643.03
2023-04-25T16:47:20.381Z,101647.38
2023-04-25T16:49:50.793Z,101640.75
2023-04-25T16:52:21.279Z,101646.31
2023-04-25T16:54:48.946Z,101644.03
2023-04-25T16:57:16.745Z,101655.63
2023-04-25T16:59:44.448Z,101655.41
2023-04-25T17:02:13.935Z,101661.59
2023-04-25T17:04:42.083Z,101669.81
2023-04-25T17:07:11.337Z,101664.84
2023-04-25T17:09:39.134Z,101666.28
2023-04-25T17:12:08.088Z,101660.91
2023-04-25T17:14:35.890Z,101665.03
2023-04-25T17:17:03.854Z,101662.16
2023-04-25T17:19:32.260Z,101680.13
2023-04-25T17:22:00.189Z,101666.06
2023-04-25T17:24:29.291Z,101675.97
2023-04-25T17:26:57.368Z,101669.78
2023-04-25T17:29:26.764Z,101682.81
2023-04-25T17:31:54.624Z,101681.56
2023-04-25T17:34:22.344Z,101684.66
2023-04-25T17:36:50.338Z,101684.44
2023-04-25T17:39:18.339Z,101685.91
2023-04-25T17:41:47.453Z,101688.19
2023-04-25T17:44:15.144Z,101680.13
2023-04-25T17:46:42.913Z,101698.94
2023-04-25T17:49:11.656Z,101689.84
2023-04-25T17:51:39.468Z,101696.06
2023-04-25T17:54:07.684Z,101679.72
2023-04-25T17:56:38.424Z,101687.84
2023-04-25T17:59:07.788Z,101699.03
2023-04-25T18:01:35.961Z,101696.00
2023-04-25T18:04:04.463Z,101701.84
2023-04-25T18:06:32.806Z,101703.31
2023-04-25T18:09:02.065Z,101701.03
2023-04-25T18:11:30.761Z,101706.00
2023-04-25T18:13:58.524Z,101703.31
2023-04-25T18:16:29.459Z,101713.47
2023-04-25T18:19:05.197Z,101718.88
2023-04-25T18:21:32.929Z,101719.06
2023-04-25T18:24:01.220Z,101732.72
2023-04-25T18:26:30.800Z,101728.78
2023-04-25T18:28:59.063Z,101726.25
2023-04-25T18:31:29.825Z,101728.91
2023-04-25T18:33:57.612Z,101736.97
2023-04-25T18:36:25.370Z,101750.00
2023-04-25T18:38:56.226Z,101743.75
2023-04-25T18:41:50.980Z,101744.94
2023-04-25T18:44:13.709Z,101750.47
2023-04-25T18:46:43.696Z,101749.03
2023-04-25T18:49:11.411Z,101756.94
2023-04-25T18:51:39.190Z,101749.28
2023-04-25T18:54:09.770Z,101756.53
2023-04-25T18:56:37.575Z,101750.69
2023-04-25T18:59:05.596Z,101750.88
2023-04-25T19:01:33.670Z,101766.34
2023-04-25T19:04:05.823Z,101771.50
2023-04-25T19:06:34.629Z,101770.22
2023-04-25T19:09:02.707Z,101766.72
2023-04-25T19:11:30.741Z,101772.53
2023-04-25T19:13:58.465Z,101770.47
2023-04-25T19:16:27.597Z,101775.00
2023-04-25T19:18:56.398Z,101772.72
2023-04-25T19:21:25.542Z,101785.75
2023-04-25T19:23:54.374Z,101784.94
2023-04-25T19:26:22.623Z,101790.09
2023-04-25T19:29:04.524Z,101784.28
2023-04-25T19:31:32.464Z,101799.59
2023-04-25T19:34:00.323Z,101796.25
2023-04-25T19:36:29.502Z,101796.06
2023-04-25T19:39:02.392Z,101798.75
2023-04-25T19:41:30.262Z,101793.59
2023-04-25T19:43:59.881Z,101794.41
2023-04-25T19:46:27.726Z,101801.19
2023-04-25T19:48:55.425Z,101802.88
2023-04-25T19:51:23.343Z,101803.88
2023-04-25T19:53:54.420Z,101797.88
2023-04-25T19:56:22.284Z,101807.81
2023-04-25T19:58:51.125Z,101815.41
2023-04-25T20:01:22.076Z,101805.91
2023-04-25T20:03:51.640Z,101811.47
2023-04-25T20:06:20.094Z,101817.19
2023-04-25T20:08:48.125Z,101816.13
2023-04-25T20:11:17.605Z,101814.66
2023-04-25T20:13:45.395Z,101828.28
2023-04-25T20:16:13.518Z,101820.59
2023-04-25T20:18:41.554Z,101821.63
2023-04-25T20:21:09.486Z,101822.22
2023-04-25T20:23:37.232Z,101829.44
2023-04-25T20:26:05.154Z,101825.72
2023-04-25T20:28:35.469Z,101835.00
2023-04-25T20:31:03.234Z,101819.28
2023-04-25T20:33:31.120Z,101830.03
2023-04-25T20:35:58.952Z,101832.72
2023-04-25T20:38:26.893Z,101826.50
2023-04-25T20:40:56.357Z,101826.69
2023-04-25T20:43:25.805Z,101830.41
2023-04-25T20:45:55.220Z,101824.41
2023-04-25T20:48:23.070Z,101828.09
2023-04-25T20:50:51.491Z,101833.47
2023-04-25T20:53:19.453Z,101818.97
2023-04-25T20:55:47.303Z,101840.06
2023-04-25T20:58:15.327Z,101829.53
2023-04-25T21:00:43.920Z,101831.38
2023-04-25T21:03:13.257Z,101836.09
2023-04-25T21:05:41.218Z,101833.63
2023-04-25T21:08:09.515Z,101836.28
2023-04-25T21:10:37.662Z,101834.81
2023-04-25T21:13:05.838Z,101833.16
2023-04-25T21:15:33.714Z,101831.50
2023-04-25T21:18:01.869Z,101828.81
2023-04-25T21:20:31.427Z,101827.16
2023-04-25T21:23:00.229Z,101832.53
2023-04-25T21:25:31.289Z,101834.38
2023-04-25T21:28:02.237Z,101847.81
2023-04-25T21:30:30.282Z,101843.66
2023-04-25T21:32:58.081Z,101853.56
2023-04-25T21:35:26.073Z,101850.03
2023-04-25T21:37:55.289Z,101851.88
2023-04-25T21:40:22.974Z,101851.06
2023-04-25T21:42:53.325Z,101854.75
2023-04-25T21:45:21.564Z,101848.38
2023-04-25T21:47:49.604Z,101846.72
2023-04-25T21:50:18.470Z,101855.97
2023-04-25T21:52:46.705Z,101848.94
2023-04-25T21:55:16.494Z,101854.50
2023-04-25T21:57:44.561Z,101852.22
2023-04-25T22:00:24.650Z,101843.50
2023-04-25T22:02:53.372Z,101853.78
2023-04-25T22:05:22.489Z,101851.94
2023-04-25T22:07:51.550Z,101854.00
2023-04-25T22:10:21.385Z,101864.91
2023-04-25T22:12:50.846Z,101856.78
2023-04-25T22:15:19.344Z,101862.59
2023-04-25T22:17:47.500Z,101859.09
2023-04-25T22:20:15.931Z,101867.97
2023-04-25T22:22:44.111Z,101871.88
2023-04-25T22:25:12.964Z,101864.66
2023-04-25T22:27:43.661Z,101864.66
2023-04-25T22:30:13.710Z,101860.13
2023-04-25T22:32:42.277Z,101869.19
2023-04-25T22:35:11.711Z,101858.63
2023-04-25T22:37:40.088Z,101867.91
2023-04-25T22:40:09.146Z,101865.22
2023-04-25T22:42:40.770Z,101868.72
2023-04-25T22:45:11.425Z,101864.75
2023-04-25T22:47:40.837Z,101865.91
2023-04-25T22:50:13.177Z,101875.50
2023-04-25T22:52:41.902Z,101869.88
2023-04-25T22:55:10.940Z,101878.19
2023-04-25T22:57:39.323Z,101883.53
2023-04-25T23:00:15.695Z,101888.72
